sensor_id;sensor_type;location;lat;lon;timestamp;P1;durP1;ratioP1;P2;durP2;ratioP2
52468;SDS011;38381;53.688;10.776;2023-03-31T00:04:45;9.63;;;5.75;;
52468;SDS011;38381;53.688;10.776;2023-03-31T00:09:51;7.63;;;5.03;;
52468;SDS011;38381;53.688;10.776;2023-03-31T00:14:56;6.47;;;4.35;;
52468;SDS011;38381;53.688;10.776;2023-03-31T00:19:57;10.50;;;5.70;;
52468;SDS011;38381;53.688;10.776;2023-03-31T00:24:59;5.88;;;4.03;;
52468;SDS011;38381;53.688;10.776;2023-03-31T00:30:00;6.40;;;4.03;;
52468;SDS011;38381;53.688;10.776;2023-03-31T00:35:00;5.77;;;3.27;;
52468;SDS011;38381;53.688;10.776;2023-03-31T00:40:01;6.30;;;3.47;;
52468;SDS011;38381;53.688;10.776;2023-03-31T00:50:16;4.65;;;3.50;;
52468;SDS011;38381;53.688;10.776;2023-03-31T00:55:27;3.65;;;2.53;;
52468;SDS011;38381;53.688;10.776;2023-03-31T01:00:32;5.88;;;2.83;;
52468;SDS011;38381;53.688;10.776;2023-03-31T01:05:34;7.43;;;3.05;;
52468;SDS011;38381;53.688;10.776;2023-03-31T01:10:49;4.10;;;2.70;;
52468;SDS011;38381;53.688;10.776;2023-03-31T01:15:52;10.65;;;3.45;;
52468;SDS011;38381;53.688;10.776;2023-03-31T01:36:49;7.65;;;4.45;;
52468;SDS011;38381;53.688;10.776;2023-03-31T01:47:14;8.18;;;3.92;;
52468;SDS011;38381;53.688;10.776;2023-03-31T01:52:27;8.77;;;4.15;;
52468;SDS011;38381;53.688;10.776;2023-03-31T01:57:35;8.37;;;4.03;;
52468;SDS011;38381;53.688;10.776;2023-03-31T02:02:46;10.15;;;4.03;;
52468;SDS011;38381;53.688;10.776;2023-03-31T02:07:54;7.05;;;4.28;;
52468;SDS011;38381;53.688;10.776;2023-03-31T02:13:00;10.75;;;4.68;;
52468;SDS011;38381;53.688;10.776;2023-03-31T02:18:02;7.25;;;4.40;;
52468;SDS011;38381;53.688;10.776;2023-03-31T02:23:11;8.20;;;3.97;;
52468;SDS011;38381;53.688;10.776;2023-03-31T02:28:15;11.88;;;4.35;;
52468;SDS011;38381;53.688;10.776;2023-03-31T02:33:20;12.57;;;4.65;;
52468;SDS011;38381;53.688;10.776;2023-03-31T02:38:20;12.10;;;4.20;;
52468;SDS011;38381;53.688;10.776;2023-03-31T02:43:21;11.07;;;4.13;;
52468;SDS011;38381;53.688;10.776;2023-03-31T02:48:26;10.65;;;5.00;;
52468;SDS011;38381;53.688;10.776;2023-03-31T02:58:55;9.23;;;4.25;;
52468;SDS011;38381;53.688;10.776;2023-03-31T03:14:51;13.02;;;5.57;;
52468;SDS011;38381;53.688;10.776;2023-03-31T03:19:54;12.52;;;5.70;;
52468;SDS011;38381;53.688;10.776;2023-03-31T03:24:59;8.48;;;5.05;;
52468;SDS011;38381;53.688;10.776;2023-03-31T03:29:59;6.65;;;5.03;;
52468;SDS011;38381;53.688;10.776;2023-03-31T03:35:02;12.35;;;6.03;;
52468;SDS011;38381;53.688;10.776;2023-03-31T03:40:03;10.77;;;6.40;;
52468;SDS011;38381;53.688;10.776;2023-03-31T03:45:05;15.38;;;6.47;;
52468;SDS011;38381;53.688;10.776;2023-03-31T03:50:06;10.55;;;6.05;;
52468;SDS011;38381;53.688;10.776;2023-03-31T03:55:07;13.10;;;6.13;;
52468;SDS011;38381;53.688;10.776;2023-03-31T04:00:08;11.07;;;6.07;;
52468;SDS011;38381;53.688;10.776;2023-03-31T04:05:11;10.80;;;5.15;;
52468;SDS011;38381;53.688;10.776;2023-03-31T04:10:12;11.52;;;5.85;;
52468;SDS011;38381;53.688;10.776;2023-03-31T04:15:12;12.48;;;7.95;;
52468;SDS011;38381;53.688;10.776;2023-03-31T04:20:13;10.93;;;6.63;;
52468;SDS011;38381;53.688;10.776;2023-03-31T04:25:14;11.48;;;6.97;;
52468;SDS011;38381;53.688;10.776;2023-03-31T04:30:16;14.35;;;6.47;;
52468;SDS011;38381;53.688;10.776;2023-03-31T04:35:22;13.57;;;7.40;;
52468;SDS011;38381;53.688;10.776;2023-03-31T04:40:24;13.80;;;6.10;;
52468;SDS011;38381;53.688;10.776;2023-03-31T04:45:25;10.77;;;6.63;;
52468;SDS011;38381;53.688;10.776;2023-03-31T04:50:25;9.00;;;7.38;;
52468;SDS011;38381;53.688;10.776;2023-03-31T04:55:25;10.23;;;6.80;;
52468;SDS011;38381;53.688;10.776;2023-03-31T05:00:26;14.65;;;8.18;;
52468;SDS011;38381;53.688;10.776;2023-03-31T05:05:28;13.15;;;7.50;;
52468;SDS011;38381;53.688;10.776;2023-03-31T05:10:29;10.23;;;6.85;;
52468;SDS011;38381;53.688;10.776;2023-03-31T05:15:30;10.10;;;7.57;;
52468;SDS011;38381;53.688;10.776;2023-03-31T05:20:31;17.67;;;9.50;;
52468;SDS011;38381;53.688;10.776;2023-03-31T05:25:31;13.90;;;9.52;;
52468;SDS011;38381;53.688;10.776;2023-03-31T05:30:32;13.63;;;10.57;;
52468;SDS011;38381;53.688;10.776;2023-03-31T05:35:33;14.95;;;7.03;;
52468;SDS011;38381;53.688;10.776;2023-03-31T05:40:34;14.57;;;8.70;;
52468;SDS011;38381;53.688;10.776;2023-03-31T05:45:34;14.60;;;8.45;;
52468;SDS011;38381;53.688;10.776;2023-03-31T05:50:34;10.10;;;8.20;;
52468;SDS011;38381;53.688;10.776;2023-03-31T05:55:35;12.15;;;8.95;;
52468;SDS011;38381;53.688;10.776;2023-03-31T06:00:36;12.98;;;8.98;;
52468;SDS011;38381;53.688;10.776;2023-03-31T06:05:36;13.98;;;7.85;;
52468;SDS011;38381;53.688;10.776;2023-03-31T06:10:37;16.70;;;10.07;;
52468;SDS011;38381;53.688;10.776;2023-03-31T06:15:37;17.02;;;9.50;;
52468;SDS011;38381;53.688;10.776;2023-03-31T06:20:38;12.90;;;8.03;;
52468;SDS011;38381;53.688;10.776;2023-03-31T06:25:38;11.53;;;7.93;;
52468;SDS011;38381;53.688;10.776;2023-03-31T06:30:39;11.48;;;8.02;;
52468;SDS011;38381;53.688;10.776;2023-03-31T06:35:40;10.93;;;7.82;;
52468;SDS011;38381;53.688;10.776;2023-03-31T06:40:41;13.40;;;8.98;;
52468;SDS011;38381;53.688;10.776;2023-03-31T06:45:41;11.75;;;7.25;;
52468;SDS011;38381;53.688;10.776;2023-03-31T06:50:41;11.73;;;8.10;;
52468;SDS011;38381;53.688;10.776;2023-03-31T06:55:42;9.88;;;7.65;;
52468;SDS011;38381;53.688;10.776;2023-03-31T07:00:42;15.68;;;9.35;;
52468;SDS011;38381;53.688;10.776;2023-03-31T07:05:48;12.18;;;7.82;;
52468;SDS011;38381;53.688;10.776;2023-03-31T07:10:54;16.50;;;7.80;;
52468;SDS011;38381;53.688;10.776;2023-03-31T07:15:56;15.85;;;8.63;;
52468;SDS011;38381;53.688;10.776;2023-03-31T07:20:57;11.93;;;7.65;;
52468;SDS011;38381;53.688;10.776;2023-03-31T07:25:58;10.77;;;7.68;;
52468;SDS011;38381;53.688;10.776;2023-03-31T07:31:01;10.95;;;7.65;;
52468;SDS011;38381;53.688;10.776;2023-03-31T07:36:05;8.02;;;6.78;;
52468;SDS011;38381;53.688;10.776;2023-03-31T07:41:09;10.77;;;6.90;;
52468;SDS011;38381;53.688;10.776;2023-03-31T07:46:15;10.77;;;6.28;;
52468;SDS011;38381;53.688;10.776;2023-03-31T07:51:18;6.72;;;5.88;;
52468;SDS011;38381;53.688;10.776;2023-03-31T07:56:21;10.15;;;6.40;;
52468;SDS011;38381;53.688;10.776;2023-03-31T08:01:23;9.60;;;6.75;;
52468;SDS011;38381;53.688;10.776;2023-03-31T08:06:25;10.10;;;5.75;;
52468;SDS011;38381;53.688;10.776;2023-03-31T08:11:25;10.95;;;6.53;;
52468;SDS011;38381;53.688;10.776;2023-03-31T08:16:26;14.65;;;6.03;;
52468;SDS011;38381;53.688;10.776;2023-03-31T08:21:27;11.68;;;5.65;;
52468;SDS011;38381;53.688;10.776;2023-03-31T08:26:28;10.97;;;6.87;;
52468;SDS011;38381;53.688;10.776;2023-03-31T08:31:30;13.30;;;5.53;;
52468;SDS011;38381;53.688;10.776;2023-03-31T08:36:31;12.45;;;5.85;;
52468;SDS011;38381;53.688;10.776;2023-03-31T08:46:50;7.13;;;5.85;;
52468;SDS011;38381;53.688;10.776;2023-03-31T08:51:57;8.90;;;5.47;;
52468;SDS011;38381;53.688;10.776;2023-03-31T08:57:01;6.75;;;5.80;;
52468;SDS011;38381;53.688;10.776;2023-03-31T09:12:45;4.93;;;3.72;;
52468;SDS011;38381;53.688;10.776;2023-03-31T09:17:56;8.02;;;3.85;;
52468;SDS011;38381;53.688;10.776;2023-03-31T09:28:43;6.68;;;3.72;;
52468;SDS011;38381;53.688;10.776;2023-03-31T09:33:45;5.80;;;3.38;;
52468;SDS011;38381;53.688;10.776;2023-03-31T09:38:50;6.63;;;2.72;;
52468;SDS011;38381;53.688;10.776;2023-03-31T09:43:51;6.05;;;3.10;;
52468;SDS011;38381;53.688;10.776;2023-03-31T09:48:59;5.32;;;2.92;;
52468;SDS011;38381;53.688;10.776;2023-03-31T09:59:46;4.18;;;3.13;;
52468;SDS011;38381;53.688;10.776;2023-03-31T10:04:49;9.82;;;3.80;;
52468;SDS011;38381;53.688;10.776;2023-03-31T10:09:51;5.53;;;4.18;;
52468;SDS011;38381;53.688;10.776;2023-03-31T10:14:54;5.95;;;3.38;;
52468;SDS011;38381;53.688;10.776;2023-03-31T10:20:19;5.80;;;3.28;;
52468;SDS011;38381;53.688;10.776;2023-03-31T10:25:27;3.45;;;2.97;;
52468;SDS011;38381;53.688;10.776;2023-03-31T10:30:31;6.32;;;4.13;;
52468;SDS011;38381;53.688;10.776;2023-03-31T10:35:34;6.38;;;3.10;;
52468;SDS011;38381;53.688;10.776;2023-03-31T10:40:36;5.30;;;3.25;;
52468;SDS011;38381;53.688;10.776;2023-03-31T10:45:37;3.95;;;2.92;;
52468;SDS011;38381;53.688;10.776;2023-03-31T10:50:43;4.75;;;2.60;;
52468;SDS011;38381;53.688;10.776;2023-03-31T11:01:13;3.85;;;3.00;;
52468;SDS011;38381;53.688;10.776;2023-03-31T11:17:29;2.30;;;1.88;;
52468;SDS011;38381;53.688;10.776;2023-03-31T11:23:20;2.60;;;2.13;;
52468;SDS011;38381;53.688;10.776;2023-03-31T11:33:42;2.42;;;1.92;;
52468;SDS011;38381;53.688;10.776;2023-03-31T11:38:50;3.33;;;2.22;;
52468;SDS011;38381;53.688;10.776;2023-03-31T11:44:03;3.47;;;2.75;;
52468;SDS011;38381;53.688;10.776;2023-03-31T11:49:14;6.10;;;1.92;;
52468;SDS011;38381;53.688;10.776;2023-03-31T11:54:24;2.85;;;2.38;;
52468;SDS011;38381;53.688;10.776;2023-03-31T11:59:30;3.40;;;2.33;;
52468;SDS011;38381;53.688;10.776;2023-03-31T12:04:33;2.00;;;1.50;;
52468;SDS011;38381;53.688;10.776;2023-03-31T12:09:44;3.10;;;1.67;;
52468;SDS011;38381;53.688;10.776;2023-03-31T12:19:58;4.47;;;1.73;;
52468;SDS011;38381;53.688;10.776;2023-03-31T12:25:10;3.35;;;2.17;;
52468;SDS011;38381;53.688;10.776;2023-03-31T12:46:27;5.10;;;2.50;;
52468;SDS011;38381;53.688;10.776;2023-03-31T12:57:20;2.67;;;1.92;;
52468;SDS011;38381;53.688;10.776;2023-03-31T13:02:23;4.40;;;2.42;;
52468;SDS011;38381;53.688;10.776;2023-03-31T13:12:25;3.83;;;2.00;;
52468;SDS011;38381;53.688;10.776;2023-03-31T13:22:36;2.90;;;2.20;;
52468;SDS011;38381;53.688;10.776;2023-03-31T13:27:47;3.03;;;2.05;;
52468;SDS011;38381;53.688;10.776;2023-03-31T13:33:01;2.90;;;2.00;;
52468;SDS011;38381;53.688;10.776;2023-03-31T13:38:22;3.22;;;1.77;;
52468;SDS011;38381;53.688;10.776;2023-03-31T13:43:43;2.10;;;1.88;;
52468;SDS011;38381;53.688;10.776;2023-03-31T14:10:08;3.65;;;2.95;;
52468;SDS011;38381;53.688;10.776;2023-03-31T14:15:22;3.88;;;2.15;;
52468;SDS011;38381;53.688;10.776;2023-03-31T14:26:05;2.67;;;2.30;;
52468;SDS011;38381;53.688;10.776;2023-03-31T14:41:58;2.63;;;2.17;;
52468;SDS011;38381;53.688;10.776;2023-03-31T14:47:02;2.35;;;1.73;;
52468;SDS011;38381;53.688;10.776;2023-03-31T14:52:10;2.70;;;1.92;;
52468;SDS011;38381;53.688;10.776;2023-03-31T14:57:31;2.57;;;1.97;;
52468;SDS011;38381;53.688;10.776;2023-03-31T15:02:38;2.03;;;1.65;;
52468;SDS011;38381;53.688;10.776;2023-03-31T15:07:41;2.65;;;1.90;;
52468;SDS011;38381;53.688;10.776;2023-03-31T15:12:41;2.72;;;1.77;;
52468;SDS011;38381;53.688;10.776;2023-03-31T15:17:42;2.40;;;1.90;;
52468;SDS011;38381;53.688;10.776;2023-03-31T15:22:46;4.35;;;1.80;;
52468;SDS011;38381;53.688;10.776;2023-03-31T15:28:07;4.40;;;2.53;;
52468;SDS011;38381;53.688;10.776;2023-03-31T15:33:33;2.75;;;1.60;;
52468;SDS011;38381;53.688;10.776;2023-03-31T15:39:00;2.50;;;1.73;;
52468;SDS011;38381;53.688;10.776;2023-03-31T15:44:28;1.80;;;1.38;;
52468;SDS011;38381;53.688;10.776;2023-03-31T15:50:07;3.83;;;1.85;;
52468;SDS011;38381;53.688;10.776;2023-03-31T15:55:39;3.08;;;2.15;;
52468;SDS011;38381;53.688;10.776;2023-03-31T16:01:04;3.03;;;1.75;;
52468;SDS011;38381;53.688;10.776;2023-03-31T16:06:34;2.13;;;1.58;;
52468;SDS011;38381;53.688;10.776;2023-03-31T16:11:58;2.03;;;1.60;;
52468;SDS011;38381;53.688;10.776;2023-03-31T16:17:25;1.67;;;1.40;;
52468;SDS011;38381;53.688;10.776;2023-03-31T16:22:52;1.95;;;1.60;;
52468;SDS011;38381;53.688;10.776;2023-03-31T16:28:31;1.80;;;1.42;;
52468;SDS011;38381;53.688;10.776;2023-03-31T16:33:55;3.30;;;1.77;;
52468;SDS011;38381;53.688;10.776;2023-03-31T16:39:16;3.55;;;1.52;;
52468;SDS011;38381;53.688;10.776;2023-03-31T16:44:37;1.60;;;1.40;;
52468;SDS011;38381;53.688;10.776;2023-03-31T16:49:58;2.10;;;1.60;;
52468;SDS011;38381;53.688;10.776;2023-03-31T16:55:18;3.63;;;2.05;;
52468;SDS011;38381;53.688;10.776;2023-03-31T17:00:39;1.80;;;1.55;;
52468;SDS011;38381;53.688;10.776;2023-03-31T17:06:05;1.95;;;1.63;;
52468;SDS011;38381;53.688;10.776;2023-03-31T17:11:28;2.67;;;1.73;;
52468;SDS011;38381;53.688;10.776;2023-03-31T17:16:43;2.20;;;1.95;;
52468;SDS011;38381;53.688;10.776;2023-03-31T17:21:43;3.88;;;1.85;;
52468;SDS011;38381;53.688;10.776;2023-03-31T17:26:44;3.17;;;1.87;;
52468;SDS011;38381;53.688;10.776;2023-03-31T17:31:44;3.30;;;1.75;;
52468;SDS011;38381;53.688;10.776;2023-03-31T17:36:45;2.42;;;2.22;;
52468;SDS011;38381;53.688;10.776;2023-03-31T17:41:46;1.80;;;1.30;;
52468;SDS011;38381;53.688;10.776;2023-03-31T17:46:46;2.80;;;2.13;;
52468;SDS011;38381;53.688;10.776;2023-03-31T17:51:47;3.30;;;1.92;;
52468;SDS011;38381;53.688;10.776;2023-03-31T17:56:47;3.03;;;2.40;;
52468;SDS011;38381;53.688;10.776;2023-03-31T18:01:51;2.30;;;2.10;;
52468;SDS011;38381;53.688;10.776;2023-03-31T18:06:52;3.35;;;2.60;;
52468;SDS011;38381;53.688;10.776;2023-03-31T18:11:52;4.45;;;3.05;;
52468;SDS011;38381;53.688;10.776;2023-03-31T18:16:53;2.60;;;2.40;;
52468;SDS011;38381;53.688;10.776;2023-03-31T18:21:53;5.38;;;4.70;;
52468;SDS011;38381;53.688;10.776;2023-03-31T18:26:54;8.05;;;4.38;;
52468;SDS011;38381;53.688;10.776;2023-03-31T18:31:54;4.65;;;3.63;;
52468;SDS011;38381;53.688;10.776;2023-03-31T18:36:55;8.05;;;7.45;;
52468;SDS011;38381;53.688;10.776;2023-03-31T18:41:55;4.55;;;3.08;;
52468;SDS011;38381;53.688;10.776;2023-03-31T18:46:57;2.90;;;2.47;;
52468;SDS011;38381;53.688;10.776;2023-03-31T18:51:57;5.25;;;3.35;;
52468;SDS011;38381;53.688;10.776;2023-03-31T18:56:58;4.35;;;3.28;;
52468;SDS011;38381;53.688;10.776;2023-03-31T19:01:58;3.72;;;3.03;;
52468;SDS011;38381;53.688;10.776;2023-03-31T19:07:00;4.22;;;2.80;;
52468;SDS011;38381;53.688;10.776;2023-03-31T19:12:00;3.42;;;2.85;;
52468;SDS011;38381;53.688;10.776;2023-03-31T19:17:01;4.23;;;3.57;;
52468;SDS011;38381;53.688;10.776;2023-03-31T19:22:03;5.27;;;3.87;;
52468;SDS011;38381;53.688;10.776;2023-03-31T19:27:04;4.78;;;4.10;;
52468;SDS011;38381;53.688;10.776;2023-03-31T19:32:05;4.60;;;3.75;;
52468;SDS011;38381;53.688;10.776;2023-03-31T19:37:06;4.72;;;3.70;;
52468;SDS011;38381;53.688;10.776;2023-03-31T19:42:06;6.50;;;4.15;;
52468;SDS011;38381;53.688;10.776;2023-03-31T19:47:07;7.60;;;3.23;;
52468;SDS011;38381;53.688;10.776;2023-03-31T19:52:07;6.67;;;5.37;;
52468;SDS011;38381;53.688;10.776;2023-03-31T19:57:07;7.90;;;7.30;;
52468;SDS011;38381;53.688;10.776;2023-03-31T20:02:09;6.60;;;6.03;;
52468;SDS011;38381;53.688;10.776;2023-03-31T20:07:11;9.68;;;8.88;;
52468;SDS011;38381;53.688;10.776;2023-03-31T20:12:12;5.95;;;4.43;;
52468;SDS011;38381;53.688;10.776;2023-03-31T20:17:13;3.85;;;3.42;;
52468;SDS011;38381;53.688;10.776;2023-03-31T20:22:14;3.63;;;2.92;;
52468;SDS011;38381;53.688;10.776;2023-03-31T20:27:15;3.47;;;3.17;;
52468;SDS011;38381;53.688;10.776;2023-03-31T20:32:15;3.05;;;2.75;;
52468;SDS011;38381;53.688;10.776;2023-03-31T20:37:16;4.28;;;3.05;;
52468;SDS011;38381;53.688;10.776;2023-03-31T20:42:17;4.00;;;3.13;;
52468;SDS011;38381;53.688;10.776;2023-03-31T20:47:17;4.25;;;3.15;;
52468;SDS011;38381;53.688;10.776;2023-03-31T20:52:18;4.85;;;3.97;;
52468;SDS011;38381;53.688;10.776;2023-03-31T20:57:18;4.43;;;3.63;;
52468;SDS011;38381;53.688;10.776;2023-03-31T21:02:19;7.32;;;4.60;;
52468;SDS011;38381;53.688;10.776;2023-03-31T21:07:19;7.78;;;4.47;;
52468;SDS011;38381;53.688;10.776;2023-03-31T21:12:20;6.32;;;4.85;;
52468;SDS011;38381;53.688;10.776;2023-03-31T21:17:20;5.67;;;5.07;;
52468;SDS011;38381;53.688;10.776;2023-03-31T21:22:21;6.55;;;5.20;;
52468;SDS011;38381;53.688;10.776;2023-03-31T21:27:24;5.47;;;4.90;;
52468;SDS011;38381;53.688;10.776;2023-03-31T21:32:26;5.18;;;4.57;;
52468;SDS011;38381;53.688;10.776;2023-03-31T21:37:28;5.65;;;5.07;;
52468;SDS011;38381;53.688;10.776;2023-03-31T21:42:29;6.72;;;5.47;;
52468;SDS011;38381;53.688;10.776;2023-03-31T21:47:29;6.18;;;5.57;;
52468;SDS011;38381;53.688;10.776;2023-03-31T21:52:30;8.77;;;6.00;;
52468;SDS011;38381;53.688;10.776;2023-03-31T21:57:31;6.32;;;5.72;;
52468;SDS011;38381;53.688;10.776;2023-03-31T22:02:31;6.85;;;5.95;;
52468;SDS011;38381;53.688;10.776;2023-03-31T22:07:31;7.43;;;5.72;;
52468;SDS011;38381;53.688;10.776;2023-03-31T22:12:32;10.40;;;5.83;;
52468;SDS011;38381;53.688;10.776;2023-03-31T22:17:32;6.00;;;5.38;;
52468;SDS011;38381;53.688;10.776;2023-03-31T22:22:33;9.82;;;6.32;;
52468;SDS011;38381;53.688;10.776;2023-03-31T22:27:33;7.97;;;7.17;;
52468;SDS011;38381;53.688;10.776;2023-03-31T22:32:34;8.57;;;7.78;;
52468;SDS011;38381;53.688;10.776;2023-03-31T22:37:35;10.32;;;9.32;;
52468;SDS011;38381;53.688;10.776;2023-03-31T22:42:35;12.80;;;10.95;;
52468;SDS011;38381;53.688;10.776;2023-03-31T22:47:36;13.10;;;11.70;;
52468;SDS011;38381;53.688;10.776;2023-03-31T22:52:36;12.52;;;11.13;;
52468;SDS011;38381;53.688;10.776;2023-03-31T22:57:37;13.65;;;11.07;;
52468;SDS011;38381;53.688;10.776;2023-03-31T23:02:37;13.47;;;11.50;;
52468;SDS011;38381;53.688;10.776;2023-03-31T23:07:37;12.48;;;11.27;;
52468;SDS011;38381;53.688;10.776;2023-03-31T23:12:38;12.20;;;11.02;;
52468;SDS011;38381;53.688;10.776;2023-03-31T23:17:38;11.80;;;10.70;;
52468;SDS011;38381;53.688;10.776;2023-03-31T23:22:39;11.07;;;9.32;;
52468;SDS011;38381;53.688;10.776;2023-03-31T23:27:39;11.20;;;9.15;;
52468;SDS011;38381;53.688;10.776;2023-03-31T23:32:39;11.97;;;9.37;;
52468;SDS011;38381;53.688;10.776;2023-03-31T23:37:40;11.57;;;8.18;;
52468;SDS011;38381;53.688;10.776;2023-03-31T23:42:41;11.07;;;9.05;;
52468;SDS011;38381;53.688;10.776;2023-03-31T23:47:41;12.32;;;10.30;;
52468;SDS011;38381;53.688;10.776;2023-03-31T23:52:42;10.75;;;8.48;;
52468;SDS011;38381;53.688;10.776;2023-03-31T23:57:42;8.73;;;7.82;;
